CW7364 Weather Reports


Display with metric or nautical units.
time (UTC)temp
F
wind
direction
speed
MPH
gust
MPH
rain 1hr
in
rain 24hr
in
rain mn
in
humidity
%
barometer
mb
20200219102017 39 45 4.0 6.0 0.00 0.00 0.00 74 1025.6
20200219101016 39 23 5.0 9.0 0.00 0.00 0.00 74 1025.5
20200219100016 39 23 4.0 8.0 0.00 0.00 0.00 74 1025.5
20200219095016 39 23 4.0 9.0 0.00 0.00 0.00 73 1025.4
20200219094016 39 23 5.0 9.0 0.00 0.00 0.00 73 1025.5
20200219093016 40 23 4.0 9.0 0.00 0.00 0.00 72 1025.5
20200219092016 40 23 4.0 8.0 0.00 0.00 0.00 72 1025.5
20200219091016 40 23 4.0 10.0 0.00 0.00 0.00 72 1025.4
20200219090016 40 23 5.0 9.0 0.00 0.00 0.00 72 1025.7
20200219085016 40 23 4.0 7.0 0.00 0.00 0.00 72 1025.8
20200219084016 40 23 4.0 7.0 0.00 0.00 0.00 72 1025.8
20200219083016 40 23 5.0 10.0 0.00 0.00 0.00 71 1025.7
20200219082016 40 23 6.0 10.0 0.00 0.00 0.00 71 1025.6
20200219081016 41 23 4.0 9.0 0.00 0.00 0.00 70 1025.7
20200219080016 41 23 5.0 10.0 0.00 0.00 0.00 70 1026.0
20200219075016 41 23 5.0 9.0 0.00 0.00 0.00 70 1025.9
20200219074016 41 23 4.0 8.0 0.00 0.00 0.00 70 1026.2
20200219073015 41 0 5.0 10.0 0.00 0.00 0.00 70 1026.1
20200219072016 41 23 4.0 8.0 0.00 0.00 0.00 70 1026.0
20200219071016 42 45 4.0 9.0 0.00 0.00 0.00 70 1025.9
20200219070016 42 23 4.0 10.0 0.00 0.00 0.00 70 1026.2
20200219065015 42 45 5.0 10.0 0.00 0.00 0.00 70 1026.0
20200219064016 42 23 5.0 10.0 0.00 0.00 0.00 70 1026.0
20200219063016 43 45 7.0 12.0 0.00 0.00 0.00 69 1026.2
20200219062016 43 23 5.0 9.0 0.00 0.00 0.00 70 1026.2
20200219061015 43 45 5.0 11.0 0.00 0.00 0.00 70 1026.2
20200219060016 44 23 5.0 10.0 0.00 0.00 0.00 70 1026.0
20200219055016 44 23 5.0 10.0 0.00 0.00 0.00 69 1026.1
20200219054016 44 45 5.0 10.0 0.00 0.00 0.00 69 1026.1
20200219053016 44 23 6.0 11.0 0.00 0.00 0.00 68 1025.9
20200219052016 45 23 8.0 15.0 0.00 0.00 0.00 68 1025.6
20200219051016 45 45 7.0 14.0 0.00 0.00 0.00 68 1025.5
20200219050016 45 23 7.0 15.0 0.00 0.00 0.00 67 1025.4
20200219045016 46 23 6.0 13.0 0.00 0.00 0.00 67 1025.2
20200219044016 46 23 8.0 13.0 0.00 0.00 0.00 66 1025.2
20200219043016 46 23 7.0 15.0 0.00 0.00 0.00 67 1025.1
20200219042016 47 23 7.0 14.0 0.00 0.00 0.00 66 1025.1
20200219041016 47 23 8.0 12.0 0.00 0.00 0.00 65 1024.8
20200219040016 47 0 6.0 11.0 0.00 0.00 0.00 65 1024.9
20200219035016 48 23 5.0 10.0 0.00 0.00 0.00 64 1024.8
20200219034016 48 0 8.0 13.0 0.00 0.00 0.00 64 1024.9
20200219033016 49 0 6.0 11.0 0.00 0.00 0.00 64 1024.3
20200219032016 49 0 6.0 11.0 0.00 0.00 0.00 64 1024.2
20200219031017 49 0 5.0 10.0 0.00 0.00 0.00 64 1024.0
20200219030017 50 0 6.0 11.0 0.00 0.00 0.00 63 1024.2
20200219025015 50 0 4.0 9.0 0.00 0.00 0.00 63 1024.0
20200219024016 50 0 6.0 10.0 0.00 0.00 0.00 63 1024.0
20200219023016 50 0 4.0 8.0 0.00 0.00 0.00 64 1023.7
20200219022036 50 0 4.0 8.0 0.00 0.00 0.00 64 1023.6
20200219021015 50 23 4.0 8.0 0.00 0.00 0.00 64 1023.4
20200219020016 50 23 4.0 9.0 0.00 0.00 0.00 64 1023.2
20200219015015 50 0 3.0 5.0 0.00 0.00 0.00 64 1023.3
20200219014016 50 23 1.0 3.0 0.00 0.00 0.00 64 1023.2
20200219013015 50 23 2.0 3.0 0.00 0.00 0.00 65 1022.9
20200219012015 51 23 3.0 4.0 0.00 0.00 0.00 63 1022.9
20200219011015 51 23 1.0 2.0 0.00 0.00 0.00 62 1023.2
20200219010015 51 23 2.0 3.0 0.00 0.00 0.00 62 1022.9
20200219005015 51 45 1.0 3.0 0.00 0.00 0.00 61 1022.6
20200219004015 51 45 1.0 2.0 0.00 0.00 0.00 62 1022.8
20200219003015 52 45 2.0 3.0 0.00 0.00 0.00 60 1022.5
20200219002016 52 45 2.0 4.0 0.00 0.00 0.00 60 1022.5
20200219001015 53 45 3.0 4.0 0.00 0.00 0.00 58 1022.3
20200219000015 54 68 3.0 4.0 0.00 0.00 0.00 56 1022.3
20200218235015 54 45 4.0 7.0 0.00 0.00 0.00 55 1022.1
20200218234015 55 45 4.0 6.0 0.00 0.00 0.00 54 1022.1
20200218233035 55 45 5.0 9.0 0.00 0.00 0.00 53 1022.1
20200218232017 55 45 6.0 10.0 0.00 0.00 0.00 51 1021.8
20200218231039 56 45 7.0 12.0 0.00 0.00 0.00 51 1021.7
20200218230019 56 45 9.0 14.0 0.00 0.00 0.00 50 1021.0
20200218225019 56 45 10.0 15.0 0.00 0.00 0.00 50 1021.3
20200218224017 56 45 11.0 17.0 0.00 0.00 0.00 49 1021.1
20200218223017 57 45 12.0 17.0 0.00 0.00 0.00 48 1020.9
20200218222017 57 45 12.0 17.0 0.00 0.00 0.00 49 1020.9
20200218221017 57 45 11.0 17.0 0.00 0.00 0.00 47 1021.0
20200218220017 56 23 11.0 20.0 0.00 0.00 0.00 47 1020.9
20200218215016 57 23 8.0 17.0 0.00 0.00 0.00 49 1020.8
20200218214017 56 23 10.0 17.0 0.00 0.00 0.00 48 1020.4
20200218213016 56 23 7.0 13.0 0.00 0.00 0.00 48 1020.1
20200218212016 56 45 11.0 19.0 0.00 0.00 0.00 48 1019.7
20200218211017 57 45 9.0 17.0 0.00 0.00 0.00 48 1020.0
20200218210036 57 23 9.0 17.0 0.00 0.00 0.00 47 1020.1
20200218205016 57 23 9.0 17.0 0.00 0.00 0.00 47 1020.2
20200218204018 57 23 9.0 15.0 0.00 0.00 0.00 47 1020.2
20200218203036 57 23 11.0 17.0 0.00 0.00 0.00 47 1019.7
20200218202016 57 45 11.0 18.0 0.00 0.00 0.00 45 1019.5
20200218201036 57 23 9.0 16.0 0.00 0.00 0.00 44 1019.5
20200218200017 57 23 11.0 18.0 0.00 0.00 0.00 44 1019.8
20200218195016 57 45 14.0 23.0 0.00 0.00 0.00 43 1019.6
20200218194016 57 45 14.0 21.0 0.00 0.00 0.00 43 1019.7
20200218193016 56 23 9.0 18.0 0.00 0.00 0.00 44 1019.9
20200218192016 56 0 8.0 18.0 0.00 0.00 0.00 44 1019.6
20200218191016 56 23 12.0 22.0 0.00 0.00 0.00 44 1019.9
20200218190016 55 23 12.0 19.0 0.00 0.00 0.00 43 1020.0
20200218185016 56 0 9.0 19.0 0.00 0.00 0.00 43 1019.7
20200218184016 55 23 11.0 22.0 0.00 0.00 0.00 43 1019.7
20200218183016 55 0 10.0 15.0 0.00 0.00 0.00 45 1019.7
20200218182017 55 23 10.0 20.0 0.00 0.00 0.00 46 1019.9
20200218181017 54 23 12.0 24.0 0.00 0.00 0.00 47 1019.9
20200218180017 54 23 10.0 20.0 0.00 0.00 0.00 45 1020.0
20200218175018 53 23 6.0 14.0 0.00 0.00 0.00 47 1019.9
20200218174015 53 23 9.0 14.0 0.00 0.00 0.00 47 1019.9
20200218173016 52 0 7.0 15.0 0.00 0.00 0.00 48 1019.8
20200218172015 52 0 9.0 17.0 0.00 0.00 0.00 48 1019.7
20200218171017 51 23 8.0 16.0 0.00 0.00 0.00 49 1019.7
20200218170016 51 23 6.0 12.0 0.00 0.00 0.00 51 1019.6
20200218165015 51 0 11.0 22.0 0.00 0.00 0.00 51 1019.4
20200218164015 51 23 10.0 18.0 0.00 0.00 0.00 51 1019.0
20200218163015 50 23 9.0 17.0 0.00 0.00 0.00 52 1019.3
20200218162015 50 23 10.0 18.0 0.00 0.00 0.00 52 1019.4
20200218161015 50 0 8.0 16.0 0.00 0.00 0.00 54 1019.2
20200218160016 50 0 7.0 13.0 0.00 0.00 0.00 56 1019.0
20200218155015 49 23 10.0 19.0 0.00 0.00 0.00 56 1018.8
20200218154015 49 0 9.0 15.0 0.00 0.00 0.00 57 1018.7
20200218153015 49 23 9.0 19.0 0.00 0.00 0.00 58 1018.6
20200218152015 49 0 11.0 22.0 0.00 0.00 0.00 57 1018.4
20200218151015 49 0 8.0 15.0 0.00 0.00 0.00 58 1018.1
20200218150016 49 0 9.0 15.0 0.00 0.00 0.00 59 1017.9
20200218145015 49 23 9.0 16.0 0.00 0.00 0.00 59 1017.8
20200218144015 50 0 6.0 11.0 0.00 0.00 0.00 59 1017.6
20200218143015 50 0 9.0 17.0 0.00 0.00 0.00 59 1017.3
20200218142015 50 0 9.0 17.0 0.00 0.00 0.00 60 1017.1
20200218141015 50 23 7.0 14.0 0.00 0.00 0.00 62 1016.9
20200218140015 50 0 6.0 14.0 0.00 0.00 0.00 63 1016.7
20200218135015 50 23 7.0 13.0 0.00 0.00 0.00 65 1016.5
20200218134015 50 0 6.0 12.0 0.00 0.00 0.00 65 1016.4
20200218133015 50 0 12.0 19.0 0.00 0.00 0.00 63 1015.9
20200218132017 51 0 9.0 21.0 0.00 0.00 0.00 64 1015.6
20200218131018 51 0 9.0 15.0 0.00 0.00 0.00 67 1015.4
20200218130017 52 23 10.0 18.0 0.00 0.00 0.00 68 1015.3
20200218125016 52 23 11.0 18.0 0.00 0.00 0.00 71 1015.0
20200218124017 53 23 6.0 14.0 0.00 0.00 0.00 73 1014.7
20200218123017 53 23 10.0 17.0 0.00 0.00 0.00 73 1014.5
20200218122016 54 0 7.0 15.0 0.00 0.00 0.00 78 1014.3
20200218121016 54 0 7.0 12.0 0.00 0.00 0.00 81 1014.0
20200218120016 55 23 9.0 17.0 0.00 0.00 0.00 82 1013.7
20200218115016 55 23 8.0 16.0 0.00 0.00 0.00 83 1013.6
20200218114016 56 23 8.0 17.0 0.00 0.00 0.00 83 1013.5
20200218113016 56 23 9.0 16.0 0.00 0.00 0.00 83 1013.3
20200218112017 57 23 9.0 19.0 0.00 0.00 0.00 82 1013.4
20200218111016 57 23 8.0 15.0 0.00 0.00 0.00 81 1013.3
20200218110016 57 23 9.0 18.0 0.00 0.00 0.00 81 1013.1
20200218105016 57 23 10.0 15.0 0.00 0.00 0.00 80 1013.0
20200218104016 58 23 9.0 15.0 0.00 0.00 0.00 79 1012.8
20200218103016 58 23 8.0 15.0 0.00 0.00 0.00 79 1012.9